createdAt,value
2023-01-21T00:01:07.131Z,102696.00
2023-01-21T00:04:10.712Z,102694.97
2023-01-21T00:07:14.482Z,102705.44
2023-01-21T00:10:18.924Z,102703.75
2023-01-21T00:13:24.211Z,102709.63
2023-01-21T00:16:27.934Z,102709.56
2023-01-21T00:19:32.065Z,102719.41
2023-01-21T00:22:35.703Z,102722.56
2023-01-21T00:25:39.474Z,102725.25
2023-01-21T00:28:44.879Z,102732.19
2023-01-21T00:31:48.616Z,102735.75
2023-01-21T00:34:52.359Z,102740.44
2023-01-21T00:37:56.350Z,102743.63
2023-01-21T00:41:04.711Z,102757.78
2023-01-21T00:44:10.000Z,102759.44
2023-01-21T00:47:13.639Z,102759.69
2023-01-21T00:50:18.124Z,102765.75
2023-01-21T00:53:21.955Z,102769.47
2023-01-21T00:56:25.643Z,102772.22
2023-01-21T00:59:31.350Z,102770.72
2023-01-21T01:02:35.096Z,102774.53
2023-01-21T01:05:38.800Z,102780.25
2023-01-21T01:08:42.727Z,102777.59
2023-01-21T01:11:46.383Z,102789.47
2023-01-21T01:14:51.376Z,102795.72
2023-01-21T01:17:55.181Z,102797.41
2023-01-21T01:20:58.917Z,102803.44
2023-01-21T01:24:03.380Z,102805.50
2023-01-21T01:27:07.018Z,102810.78
2023-01-21T01:30:14.259Z,102817.22
2023-01-21T01:33:19.307Z,102815.69
2023-01-21T01:36:24.781Z,102827.66
2023-01-21T01:39:28.482Z,102824.28
2023-01-21T01:42:32.142Z,102817.47
2023-01-21T01:45:37.605Z,102826.91
2023-01-21T01:48:44.920Z,102829.75
2023-01-21T01:51:54.332Z,102841.84
2023-01-21T01:55:03.352Z,102839.38
2023-01-21T01:58:13.429Z,102850.72
2023-01-21T02:01:19.160Z,102846.75
2023-01-21T02:04:30.270Z,102854.03
2023-01-21T02:07:39.681Z,102858.28
2023-01-21T02:10:43.683Z,102843.19
2023-01-21T02:13:54.036Z,102847.66
2023-01-21T02:17:30.527Z,102848.22
2023-01-21T02:21:20.137Z,102851.59
2023-01-21T02:25:15.314Z,102849.56
2023-01-21T02:29:00.220Z,102857.53
2023-01-21T02:32:58.431Z,102860.31
2023-01-21T02:36:23.718Z,102862.88
2023-01-21T02:39:46.507Z,102869.09
2023-01-21T02:43:03.028Z,102864.09
2023-01-21T02:46:17.931Z,102876.16
2023-01-21T02:49:30.848Z,102871.28
2023-01-21T02:52:34.695Z,102874.88
2023-01-21T02:55:42.011Z,102868.16
2023-01-21T02:58:52.493Z,102873.19
2023-01-21T03:02:15.027Z,102866.81
2023-01-21T03:05:36.957Z,102871.34
2023-01-21T03:08:49.230Z,102874.06
2023-01-21T03:12:13.920Z,102877.88
2023-01-21T03:15:43.235Z,102875.91
2023-01-21T03:18:53.969Z,102884.38
2023-01-21T03:22:04.564Z,102884.06
2023-01-21T03:25:13.073Z,102883.81
2023-01-21T03:28:24.350Z,102882.41
2023-01-21T03:31:34.365Z,102885.97
2023-01-21T03:34:45.317Z,102888.38
2023-01-21T03:37:59.963Z,102886.75
2023-01-21T03:41:13.327Z,102883.59
2023-01-21T03:44:17.765Z,102894.72
2023-01-21T03:47:29.530Z,102890.22
2023-01-21T03:50:39.417Z,102887.91
2023-01-21T03:53:45.074Z,102895.44
2023-01-21T03:56:48.750Z,102890.78
2023-01-21T03:59:52.445Z,102886.16
2023-01-21T04:02:56.055Z,102899.09
2023-01-21T04:05:59.878Z,102900.06
2023-01-21T04:09:05.018Z,102904.44
2023-01-21T04:12:08.677Z,102905.50
2023-01-21T04:15:13.116Z,102902.88
2023-01-21T04:18:16.697Z,102907.88
2023-01-21T04:21:20.319Z,102909.56
2023-01-21T04:24:25.326Z,102908.25
2023-01-21T04:27:29.042Z,102907.34
2023-01-21T04:30:32.804Z,102906.78
2023-01-21T04:33:36.547Z,102901.25
2023-01-21T04:36:40.145Z,102908.50
2023-01-21T04:39:45.410Z,102919.66
2023-01-21T04:42:49.040Z,102926.16
2023-01-21T04:45:52.818Z,102919.81
2023-01-21T04:48:56.415Z,102923.97
2023-01-21T04:52:00.094Z,102932.41
2023-01-21T04:55:06.260Z,102940.19
2023-01-21T04:58:10.017Z,102947.25
2023-01-21T05:01:14.009Z,102942.47
2023-01-21T05:04:17.917Z,102952.06
2023-01-21T05:07:21.853Z,102958.69
2023-01-21T05:10:27.028Z,102951.94
2023-01-21T05:13:30.733Z,102961.41
2023-01-21T05:16:34.327Z,102969.38
2023-01-21T05:19:38.087Z,102976.50
2023-01-21T05:22:41.841Z,102991.22
2023-01-21T05:25:49.581Z,102986.81
2023-01-21T05:29:00.212Z,102993.31
2023-01-21T05:32:03.877Z,102988.84
2023-01-21T05:35:08.693Z,103000.13
2023-01-21T05:38:12.286Z,103000.91
2023-01-21T05:41:17.323Z,103005.34
2023-01-21T05:44:21.137Z,103008.00
2023-01-21T05:47:24.876Z,103014.66
2023-01-21T05:50:28.517Z,103021.22
2023-01-21T05:53:32.124Z,103024.94
2023-01-21T05:56:37.091Z,103030.00
2023-01-21T05:59:40.709Z,103024.34
2023-01-21T06:02:44.371Z,103025.28
2023-01-21T06:05:50.894Z,103035.13
2023-01-21T06:08:54.539Z,103034.28
2023-01-21T06:11:59.728Z,103029.72
2023-01-21T06:15:03.378Z,103029.56
2023-01-21T06:18:08.502Z,103036.84
2023-01-21T06:21:12.160Z,103035.84
2023-01-21T06:24:15.998Z,103041.00
2023-01-21T06:27:20.925Z,103046.38
2023-01-21T06:30:25.819Z,103047.03
2023-01-21T06:33:29.515Z,103057.47
2023-01-21T06:36:33.202Z,103048.78
2023-01-21T06:39:36.967Z,103049.91
2023-01-21T06:42:42.227Z,103058.81
2023-01-21T06:45:45.797Z,103068.22
2023-01-21T06:48:49.530Z,103068.22
2023-01-21T06:51:53.259Z,103074.59
2023-01-21T06:54:56.875Z,103077.97
2023-01-21T06:58:02.072Z,103079.16
2023-01-21T07:01:06.060Z,103082.81
2023-01-21T07:04:09.640Z,103084.59
2023-01-21T07:07:13.269Z,103093.31
2023-01-21T07:10:17.876Z,103101.84
2023-01-21T07:13:23.510Z,103098.00
2023-01-21T07:16:27.545Z,103105.72
2023-01-21T07:19:31.197Z,103098.63
2023-01-21T07:22:36.065Z,103097.69
2023-01-21T07:25:39.696Z,103097.84
2023-01-21T07:28:44.701Z,103101.38
2023-01-21T07:31:49.537Z,103112.66
2023-01-21T07:34:53.569Z,103115.22
2023-01-21T07:37:57.309Z,103116.97
2023-01-21T07:41:01.237Z,103131.41
2023-01-21T07:44:09.836Z,103135.66
2023-01-21T07:47:13.472Z,103135.75
2023-01-21T07:50:18.094Z,103148.41
2023-01-21T07:53:21.732Z,103149.66
2023-01-21T07:56:26.869Z,103159.25
2023-01-21T07:59:31.935Z,103157.81
2023-01-21T08:02:36.292Z,103167.53
2023-01-21T08:05:40.135Z,103169.28
2023-01-21T08:08:43.717Z,103175.69
2023-01-21T08:11:47.431Z,103188.00
2023-01-21T08:14:52.449Z,103187.41
2023-01-21T08:17:56.637Z,103187.75
2023-01-21T08:21:01.282Z,103184.50
2023-01-21T08:24:05.697Z,103187.31
2023-01-21T08:27:09.287Z,103186.56
2023-01-21T08:30:15.788Z,103194.44
2023-01-21T08:33:19.416Z,103200.41
2023-01-21T08:36:23.046Z,103213.44
2023-01-21T08:39:26.745Z,103204.91
2023-01-21T08:42:30.912Z,103218.59
2023-01-21T08:45:38.704Z,103210.22
2023-01-21T08:48:42.750Z,103209.56
2023-01-21T08:51:46.430Z,103213.25
2023-01-21T08:54:50.883Z,103209.56
2023-01-21T08:57:55.861Z,103220.19
2023-01-21T09:01:07.535Z,103225.88
2023-01-21T09:04:11.489Z,103220.25
2023-01-21T09:07:15.138Z,103230.94
2023-01-21T09:10:39.543Z,103236.94
2023-01-21T09:13:44.648Z,103247.25
2023-01-21T09:16:51.657Z,103243.91
2023-01-21T09:19:55.587Z,103240.44
2023-01-21T09:23:00.140Z,103241.97
2023-01-21T09:26:06.649Z,103242.75
2023-01-21T09:29:12.709Z,103238.00
2023-01-21T09:32:17.760Z,103250.91
2023-01-21T09:35:21.366Z,103263.81
2023-01-21T09:38:25.716Z,103265.59
2023-01-21T09:41:36.355Z,103270.03
2023-01-21T09:44:45.774Z,103280.19
2023-01-21T09:47:55.225Z,103281.03
2023-01-21T09:51:07.329Z,103284.09
2023-01-21T09:54:21.898Z,103284.53
2023-01-21T09:57:59.549Z,103287.53
2023-01-21T10:01:13.976Z,103291.09
2023-01-21T10:04:41.748Z,103285.94
2023-01-21T10:07:56.293Z,103288.16
2023-01-21T10:11:22.220Z,103296.56
2023-01-21T10:15:05.385Z,103293.53
2023-01-21T10:18:14.024Z,103296.19
2023-01-21T10:21:33.363Z,103295.84
2023-01-21T10:24:45.289Z,103297.53
2023-01-21T10:27:48.882Z,103292.50
2023-01-21T10:30:55.568Z,103308.22
2023-01-21T10:33:59.555Z,103307.03
2023-01-21T10:37:18.984Z,103308.38
2023-01-21T10:40:43.770Z,103312.94
2023-01-21T10:43:59.169Z,103319.16
2023-01-21T10:47:15.591Z,103325.72
2023-01-21T10:50:42.165Z,103324.44
2023-01-21T10:53:58.007Z,103323.19
2023-01-21T10:57:16.816Z,103325.91
2023-01-21T11:00:24.882Z,103325.69
2023-01-21T11:03:41.294Z,103321.03
2023-01-21T11:06:50.101Z,103318.75
2023-01-21T11:09:55.569Z,103319.97
2023-01-21T11:13:00.006Z,103303.78
2023-01-21T11:16:04.677Z,103309.81
2023-01-21T11:19:14.518Z,103307.91
2023-01-21T11:22:25.978Z,103315.28
2023-01-21T11:25:41.106Z,103306.00
2023-01-21T11:28:45.878Z,103300.09
2023-01-21T11:31:52.984Z,103307.84
2023-01-21T11:35:05.903Z,103305.78
2023-01-21T11:38:26.039Z,103306.16
2023-01-21T11:41:31.960Z,103305.66
2023-01-21T11:44:36.206Z,103304.09
2023-01-21T11:47:48.978Z,103309.84
2023-01-21T11:51:07.838Z,103296.94
2023-01-21T11:54:15.667Z,103302.00
2023-01-21T11:57:30.149Z,103300.19
2023-01-21T12:00:37.222Z,103295.31
2023-01-21T12:03:48.874Z,103300.09
2023-01-21T12:06:58.095Z,103297.44
2023-01-21T12:10:24.536Z,103292.94
2023-01-21T12:13:40.352Z,103289.03
2023-01-21T12:17:03.214Z,103290.69
2023-01-21T12:20:29.003Z,103290.16
2023-01-21T12:24:07.472Z,103290.41
2023-01-21T12:27:27.574Z,103284.56
2023-01-21T12:30:46.033Z,103284.53
2023-01-21T12:33:59.945Z,103281.22
2023-01-21T12:37:14.640Z,103282.19
2023-01-21T12:40:25.672Z,103288.41
2023-01-21T12:43:36.826Z,103275.16
2023-01-21T12:46:48.692Z,103277.75
2023-01-21T12:50:27.851Z,103282.13
2023-01-21T12:53:41.719Z,103286.75
2023-01-21T12:56:52.057Z,103276.41
2023-01-21T13:00:03.119Z,103295.00
2023-01-21T13:03:25.643Z,103288.31
2023-01-21T13:06:53.249Z,103295.59
2023-01-21T13:10:12.707Z,103294.25
2023-01-21T13:13:24.321Z,103302.50
2023-01-21T13:16:30.412Z,103302.63
2023-01-21T13:19:35.474Z,103298.44
2023-01-21T13:22:48.955Z,103297.50
2023-01-21T13:26:02.329Z,103300.78
2023-01-21T13:29:20.463Z,103295.00
2023-01-21T13:32:44.492Z,103293.09
2023-01-21T13:36:01.806Z,103294.78
2023-01-21T13:39:17.647Z,103290.34
2023-01-21T13:42:37.913Z,103296.69
2023-01-21T13:45:59.273Z,103290.56
2023-01-21T13:49:38.004Z,103294.44
2023-01-21T13:53:02.733Z,103294.22
2023-01-21T13:56:29.711Z,103302.09
2023-01-21T13:59:41.390Z,103300.47
2023-01-21T14:02:56.587Z,103311.41
2023-01-21T14:06:08.949Z,103308.50
2023-01-21T14:09:21.621Z,103310.41
2023-01-21T14:12:52.478Z,103321.03
2023-01-21T14:16:27.897Z,103320.38
2023-01-21T14:20:10.008Z,103321.75
2023-01-21T14:23:50.491Z,103321.03
2023-01-21T14:27:15.019Z,103329.09
2023-01-21T14:30:25.816Z,103333.28
2023-01-21T14:33:39.738Z,103327.97
2023-01-21T14:36:54.413Z,103326.44
2023-01-21T14:40:13.253Z,103319.72
2023-01-21T14:43:53.026Z,103318.25
2023-01-21T14:47:19.555Z,103315.28
2023-01-21T14:50:53.818Z,103328.66
2023-01-21T14:54:03.224Z,103322.75
2023-01-21T14:57:18.578Z,103325.31
2023-01-21T15:00:30.614Z,103331.22
2023-01-21T15:03:46.930Z,103320.16
2023-01-21T15:06:56.492Z,103326.78
2023-01-21T15:10:10.175Z,103331.97
2023-01-21T15:13:38.055Z,103335.19
2023-01-21T15:16:45.438Z,103337.78
2023-01-21T15:19:59.193Z,103340.38
2023-01-21T15:23:18.543Z,103340.16
2023-01-21T15:26:33.791Z,103340.66
2023-01-21T15:29:39.708Z,103343.75
2023-01-21T15:32:50.799Z,103341.69
2023-01-21T15:35:56.443Z,103340.41
2023-01-21T15:39:04.794Z,103340.28
2023-01-21T15:42:23.520Z,103345.75
2023-01-21T15:45:38.925Z,103351.75
2023-01-21T15:49:20.296Z,103355.94
2023-01-21T15:52:45.941Z,103354.00
2023-01-21T15:56:23.589Z,103356.06
2023-01-21T16:00:02.667Z,103354.19
2023-01-21T16:03:23.051Z,103355.66
2023-01-21T16:06:44.010Z,103358.22
2023-01-21T16:10:06.204Z,103350.19
2023-01-21T16:13:23.674Z,103348.47
2023-01-21T16:16:51.660Z,103348.41
2023-01-21T16:20:01.556Z,103349.94
2023-01-21T16:23:09.063Z,103345.91
2023-01-21T16:26:25.250Z,103337.03
2023-01-21T16:29:28.923Z,103341.63
2023-01-21T16:32:32.834Z,103339.03
2023-01-21T16:35:45.606Z,103342.59
2023-01-21T16:38:50.776Z,103337.28
2023-01-21T16:42:03.670Z,103341.31
2023-01-21T16:45:17.765Z,103337.78
2023-01-21T16:48:26.679Z,103335.03
2023-01-21T16:51:33.509Z,103340.03
2023-01-21T16:54:50.029Z,103335.50
2023-01-21T16:57:56.697Z,103333.56
2023-01-21T17:01:06.608Z,103334.34
2023-01-21T17:04:10.959Z,103329.91
2023-01-21T17:07:21.264Z,103330.84
2023-01-21T17:10:34.031Z,103324.81
2023-01-21T17:13:42.608Z,103333.28
2023-01-21T17:16:46.433Z,103333.91
2023-01-21T17:19:52.085Z,103330.53
2023-01-21T17:22:55.920Z,103337.13
2023-01-21T17:26:06.102Z,103335.53
2023-01-21T17:29:17.899Z,103331.09
2023-01-21T17:32:28.561Z,103333.41
2023-01-21T17:35:33.724Z,103326.66
2023-01-21T17:38:42.932Z,103327.69
2023-01-21T17:41:47.944Z,103335.84
2023-01-21T17:44:56.677Z,103335.19
2023-01-21T17:48:10.229Z,103336.81
2023-01-21T17:51:18.357Z,103333.41
2023-01-21T17:54:25.130Z,103352.84
2023-01-21T17:57:38.984Z,103351.13
2023-01-21T18:00:45.447Z,103351.78
2023-01-21T18:03:49.212Z,103346.69
2023-01-21T18:06:55.141Z,103339.41
2023-01-21T18:10:03.724Z,103340.19
2023-01-21T18:13:12.568Z,103348.72
2023-01-21T18:16:16.481Z,103339.63
2023-01-21T18:19:30.819Z,103342.84
2023-01-21T18:22:36.068Z,103336.34
2023-01-21T18:25:40.751Z,103334.56
2023-01-21T18:28:45.845Z,103338.19
2023-01-21T18:31:52.163Z,103330.38
2023-01-21T18:34:56.085Z,103327.06
2023-01-21T18:38:00.021Z,103328.69
2023-01-21T18:41:03.993Z,103326.34
2023-01-21T18:44:09.764Z,103341.97
2023-01-21T18:47:15.565Z,103332.13
2023-01-21T18:50:23.229Z,103346.00
2023-01-21T18:53:27.026Z,103343.59
2023-01-21T18:56:30.700Z,103344.88
2023-01-21T18:59:36.168Z,103344.16
2023-01-21T19:02:39.784Z,103343.41
2023-01-21T19:05:47.574Z,103345.34
2023-01-21T19:08:51.451Z,103345.81
2023-01-21T19:11:55.024Z,103358.44
2023-01-21T19:15:00.047Z,103353.69
2023-01-21T19:18:03.862Z,103346.59
2023-01-21T19:21:08.285Z,103351.31
2023-01-21T19:24:12.470Z,103348.16
2023-01-21T19:27:26.365Z,103350.16
2023-01-21T19:30:33.329Z,103342.34
2023-01-21T19:33:36.988Z,103339.84
2023-01-21T19:36:41.556Z,103341.97
2023-01-21T19:39:45.366Z,103346.34
2023-01-21T19:42:50.188Z,103335.22
2023-01-21T19:45:55.906Z,103327.31
2023-01-21T19:49:00.779Z,103322.97
2023-01-21T19:52:05.847Z,103315.16
2023-01-21T19:55:15.232Z,103334.75
2023-01-21T19:58:23.304Z,103329.66
2023-01-21T20:01:28.368Z,103341.84
2023-01-21T20:04:32.008Z,103341.47
2023-01-21T20:07:35.797Z,103344.13
2023-01-21T20:10:39.439Z,103347.16
2023-01-21T20:13:43.135Z,103359.19
2023-01-21T20:16:52.813Z,103360.06
2023-01-21T20:19:56.416Z,103367.94
2023-01-21T20:23:00.394Z,103358.44
2023-01-21T20:26:09.528Z,103357.69
2023-01-21T20:29:16.644Z,103362.63
2023-01-21T20:32:21.793Z,103358.44
2023-01-21T20:35:27.227Z,103358.19
2023-01-21T20:38:34.944Z,103353.94
2023-01-21T20:41:39.939Z,103348.63
2023-01-21T20:44:44.648Z,103346.72
2023-01-21T20:47:52.807Z,103349.28
2023-01-21T20:50:56.777Z,103353.09
2023-01-21T20:54:00.364Z,103344.94
2023-01-21T20:57:04.078Z,103343.81
2023-01-21T21:00:14.527Z,103343.81
2023-01-21T21:03:20.330Z,103346.38
2023-01-21T21:06:27.774Z,103342.72
2023-01-21T21:09:36.114Z,103341.09
2023-01-21T21:12:39.831Z,103345.31
2023-01-21T21:15:46.644Z,103344.25
2023-01-21T21:18:52.565Z,103345.66
2023-01-21T21:21:56.203Z,103353.94
2023-01-21T21:24:59.966Z,103352.75
2023-01-21T21:28:03.757Z,103344.69
2023-01-21T21:31:07.430Z,103360.00
2023-01-21T21:34:13.540Z,103343.41
2023-01-21T21:37:17.119Z,103348.56
2023-01-21T21:40:22.588Z,103352.53
2023-01-21T21:43:35.955Z,103349.22
2023-01-21T21:46:58.310Z,103356.97
2023-01-21T21:50:03.395Z,103354.19
2023-01-21T21:53:08.317Z,103347.59
2023-01-21T21:56:15.904Z,103346.25
2023-01-21T21:59:19.833Z,103352.59
2023-01-21T22:02:23.993Z,103357.59
2023-01-21T22:05:33.088Z,103358.63
2023-01-21T22:08:39.340Z,103367.91
2023-01-21T22:11:43.113Z,103368.97
2023-01-21T22:14:46.747Z,103359.66
2023-01-21T22:17:50.699Z,103369.19
2023-01-21T22:21:02.050Z,103366.75
2023-01-21T22:24:08.251Z,103360.00
2023-01-21T22:27:13.279Z,103356.06
2023-01-21T22:30:17.711Z,103361.28
2023-01-21T22:33:22.305Z,103364.03
2023-01-21T22:36:30.623Z,103352.72
2023-01-21T22:39:34.213Z,103351.94
2023-01-21T22:42:38.087Z,103347.91
2023-01-21T22:45:48.063Z,103344.41
2023-01-21T22:48:52.335Z,103341.59
2023-01-21T22:51:57.316Z,103334.94
2023-01-21T22:55:00.973Z,103332.19
2023-01-21T22:58:04.690Z,103337.25
2023-01-21T23:01:08.808Z,103338.38
2023-01-21T23:04:12.705Z,103330.56
2023-01-21T23:07:17.865Z,103335.00
2023-01-21T23:10:21.799Z,103327.19
2023-01-21T23:13:26.480Z,103336.78
2023-01-21T23:16:30.068Z,103329.84
2023-01-21T23:19:33.744Z,103330.00
2023-01-21T23:22:38.765Z,103317.75
2023-01-21T23:25:42.704Z,103324.69
2023-01-21T23:28:47.340Z,103316.28
2023-01-21T23:31:51.972Z,103321.31
2023-01-21T23:34:55.882Z,103314.38
2023-01-21T23:38:01.159Z,103306.63
2023-01-21T23:41:08.252Z,103308.28
2023-01-21T23:44:12.064Z,103303.13
2023-01-21T23:47:15.697Z,103299.09
2023-01-21T23:50:19.735Z,103294.16
2023-01-21T23:53:25.203Z,103291.50
2023-01-21T23:56:28.961Z,103296.69
2023-01-21T23:59:32.651Z,103289.00
